Time;durP1;ratioP1;P1;durP2;ratioP2;P2;SDS_P1;SDS_P2;PMS_P1;PMS_P2;Temp;Humidity;BMP_temperature;BMP_pressure;BME280_temperature;BME280_humidity;BME280_pressure;Samples;Min_cycle;Max_cycle;Signal;HPM_P1;HPM_P2
2021/10/12 00:10:12;;;;;;;2.35;1.90;;;22.40;56.30;;;;;;31750527;28;20044;-50
2021/10/12 00:25:14;;;;;;;1.20;1.05;;;22.30;56.50;;;;;;31746459;28;20073;-45
2021/10/12 00:40:16;;;;;;;0.70;0.70;;;22.40;56.90;;;;;;31756275;28;20086;-45
2021/10/12 00:55:18;;;;;;;0.73;0.73;;;22.30;56.90;;;;;;31770423;28;20056;-45
2021/10/12 01:10:22;;;;;;;0.30;0.30;;;22.30;56.70;;;;;;31772407;28;20048;-41
2021/10/12 01:25:24;;;;;;;0.43;0.30;;;22.90;56.30;;;;;;31772993;28;20067;-45
2021/10/12 01:40:26;;;;;;;0.20;0.20;;;23.20;56.00;;;;;;31769155;28;20040;-41
2021/10/12 01:55:28;;;;;;;2.05;0.30;;;23.00;56.60;;;;;;31766521;28;20103;-45
2021/10/12 02:10:30;;;;;;;0.25;0.20;;;22.90;56.80;;;;;;31761364;28;20074;-48
2021/10/12 02:25:32;;;;;;;0.10;0.10;;;22.80;56.60;;;;;;31760176;28;20052;-47
2021/10/12 02:40:34;;;;;;;0.17;0.17;;;22.70;57.10;;;;;;31757836;28;20040;-49
2021/10/12 02:55:37;;;;;;;0.10;0.10;;;22.70;57.60;;;;;;31759817;28;20070;-37
2021/10/12 03:10:39;;;;;;;1.08;0.63;;;22.60;57.80;;;;;;31694127;28;20044;-46
2021/10/12 03:25:41;;;;;;;0.10;0.10;;;22.50;58.10;;;;;;31753137;28;20052;-39
2021/10/12 03:40:43;;;;;;;0.10;0.10;;;22.50;58.00;;;;;;31754719;28;20044;-39
2021/10/12 03:55:45;;;;;;;0.10;0.10;;;22.40;58.10;;;;;;31752500;28;20044;-47
2021/10/12 04:10:47;;;;;;;0.15;0.15;;;22.40;58.00;;;;;;31746186;28;20048;-46
2021/10/12 04:25:49;;;;;;;0.17;0.17;;;22.40;58.20;;;;;;31749141;28;20093;-37
2021/10/12 04:40:52;;;;;;;2.60;0.63;;;22.30;58.70;;;;;;31749146;28;20111;-40
2021/10/12 04:55:54;;;;;;;0.20;0.20;;;22.80;58.00;;;;;;31750345;28;20067;-39
2021/10/12 05:10:56;;;;;;;1.23;0.20;;;23.20;57.20;;;;;;31749936;28;20098;-48
2021/10/12 05:25:58;;;;;;;0.10;0.10;;;23.10;57.70;;;;;;31756706;28;20052;-47
2021/10/12 05:41:00;;;;;;;0.90;0.20;;;22.90;58.10;;;;;;31771266;28;20131;-48
2021/10/12 05:56:07;;;;;;;0.52;0.20;;;22.80;58.10;;;;;;31769201;28;20044;-47
2021/10/12 06:11:10;;;;;;;9.27;5.63;;;22.70;57.90;;;;;;31752224;28;20048;-39
2021/10/12 06:26:12;;;;;;;16.05;12.48;;;22.50;57.80;;;;;;31754437;28;20040;-41
2021/10/12 06:41:14;;;;;;;25.35;20.30;;;22.50;56.90;;;;;;31758903;28;20047;-39
2021/10/12 06:56:16;;;;;;;21.40;15.57;;;22.40;55.90;;;;;;31755827;28;20048;-44
2021/10/12 07:11:18;;;;;;;13.30;9.48;;;22.40;55.30;;;;;;31750392;28;20044;-46
2021/10/12 07:26:20;;;;;;;9.68;7.38;;;22.40;55.90;;;;;;31754823;28;20071;-47
2021/10/12 07:41:22;;;;;;;9.10;7.53;;;22.40;56.20;;;;;;31756955;28;20065;-45
2021/10/12 07:56:36;;;;;;;9.68;7.03;;;22.40;56.00;;;;;;31721202;28;20099;-42
2021/10/12 08:11:38;;;;;;;25.40;20.15;;;22.40;56.20;;;;;;31721664;28;20051;-47
2021/10/12 08:26:42;;;;;;;41.60;31.33;;;22.20;56.00;;;;;;31752140;28;20051;-41
2021/10/12 08:41:53;;;;;;;46.20;31.85;;;22.20;55.90;;;;;;31748837;28;20040;-40
2021/10/12 08:56:55;;;;;;;28.42;23.63;;;22.20;55.50;;;;;;31752283;28;20044;-40
2021/10/12 09:11:57;;;;;;;18.48;15.02;;;22.10;55.30;;;;;;31771988;28;20047;-38
2021/10/12 09:27:05;;;;;;;15.75;11.65;;;22.10;54.40;;;;;;31769025;28;20075;-46
2021/10/12 09:42:08;;;;;;;15.05;10.25;;;22.10;54.80;;;;;;31765783;28;20045;-44
2021/10/12 09:57:11;;;;;;;14.88;10.50;;;22.10;54.70;;;;;;31764106;28;20055;-42
2021/10/12 10:12:13;;;;;;;33.28;25.58;;;22.10;53.70;;;;;;31729487;28;20048;-40
2021/10/12 10:27:34;;;;;;;24.90;19.02;;;22.00;53.30;;;;;;31761479;28;20123;-50
2021/10/12 10:42:41;;;;;;;15.85;11.13;;;22.00;53.30;;;;;;31757791;28;20127;-53
2021/10/12 10:58:02;;;;;;;10.00;7.45;;;21.90;53.00;;;;;;31641968;28;20053;-46
2021/10/12 11:13:05;;;;;;;7.43;5.60;;;22.70;52.20;;;;;;31724420;28;20082;-46
2021/10/12 11:28:11;;;;;;;27.00;17.10;;;22.90;51.80;;;;;;31380045;28;10000079;-49
2021/10/12 11:43:13;;;;;;;25.95;18.45;;;22.60;52.00;;;;;;31711531;28;20049;-48
2021/10/12 11:58:15;;;;;;;32.60;16.00;;;21.90;54.00;;;;;;31737215;28;20619;-47
2021/10/12 12:13:18;;;;;;;30.83;16.42;;;22.20;52.60;;;;;;31749291;28;20126;-45
2021/10/12 12:28:21;;;;;;;23.85;15.55;;;22.30;52.80;;;;;;31751334;28;20075;-39
2021/10/12 12:43:26;;;;;;;20.08;14.18;;;22.20;53.40;;;;;;31747797;28;20056;-40
2021/10/12 12:58:35;;;;;;;20.45;14.07;;;22.20;53.70;;;;;;31744085;28;20064;-46
2021/10/12 13:13:38;;;;;;;15.75;13.07;;;22.20;53.50;;;;;;31751296;28;20040;-37
2021/10/12 13:28:40;;;;;;;18.02;11.75;;;22.20;54.00;;;;;;31724064;28;20076;-37
2021/10/12 13:43:42;;;;;;;33.13;13.23;;;22.30;54.90;;;;;;31741296;28;20085;-44
2021/10/12 13:58:45;;;;;;;20.15;10.45;;;22.70;54.50;;;;;;31769961;28;20464;-44
2021/10/12 14:13:47;;;;;;;16.80;6.32;;;22.10;55.70;;;;;;31767630;28;20036;-47
2021/10/12 14:28:49;;;;;;;8.10;5.25;;;22.10;54.00;;;;;;31760303;28;20055;-47
2021/10/12 14:43:51;;;;;;;23.10;8.05;;;22.20;54.10;;;;;;31760767;28;20082;-44
2021/10/12 14:58:53;;;;;;;8.63;4.88;;;21.80;55.10;;;;;;31382274;28;10000036;-42
2021/10/12 15:13:55;;;;;;;10.48;5.45;;;21.80;54.70;;;;;;31626170;28;20052;-45
2021/10/12 15:28:57;;;;;;;10.00;6.40;;;21.60;53.80;;;;;;31723860;28;20080;-44
2021/10/12 15:43:59;;;;;;;32.90;11.38;;;21.20;54.20;;;;;;31665009;28;20070;-49
2021/10/12 15:59:03;;;;;;;18.35;5.50;;;20.90;53.20;;;;;;31635110;28;20069;-45
2021/10/12 16:14:19;;;;;;;2.47;1.90;;;22.30;51.30;;;;;;31738143;28;20040;-44
2021/10/12 16:29:23;;;;;;;2.65;1.05;;;23.10;51.00;;;;;;31746235;28;20056;-37
2021/10/12 16:44:26;;;;;;;14.38;1.55;;;23.00;52.30;;;;;;31748727;28;20093;-46
2021/10/12 16:59:31;;;;;;;10.73;1.13;;;23.00;53.60;;;;;;31750605;28;20047;-43
2021/10/12 17:14:34;;;;;;;3.38;0.80;;;23.00;54.30;;;;;;31748377;28;20059;-45
2021/10/12 17:29:36;;;;;;;3.88;0.60;;;23.00;54.90;;;;;;31764224;28;20170;-39
2021/10/12 17:44:38;;;;;;;5.75;0.40;;;23.00;55.40;;;;;;31757340;28;20490;-35
2021/10/12 17:59:41;;;;;;;0.45;0.20;;;23.00;55.90;;;;;;31760689;28;20059;-37
2021/10/12 18:14:45;;;;;;;1.80;0.30;;;22.90;56.00;;;;;;31751674;28;20047;-37
2021/10/12 18:29:47;;;;;;;1.08;0.30;;;22.90;56.40;;;;;;31754515;28;20051;-43
2021/10/12 18:44:49;;;;;;;0.20;0.10;;;22.90;56.80;;;;;;31753427;28;20040;-35
2021/10/12 19:00:13;;;;;;;6.30;3.72;;;22.90;57.00;;;;;;31761689;28;20052;-47
2021/10/12 19:15:15;;;;;;;4.75;2.40;;;22.40;55.60;;;;;;31757814;28;20123;-44
2021/10/12 19:30:19;;;;;;;3.00;1.90;;;22.70;55.60;;;;;;31454442;28;10000757;-37
2021/10/12 19:45:21;;;;;;;1.10;0.98;;;22.80;55.90;;;;;;31620527;28;20066;-38
2021/10/12 20:00:23;;;;;;;0.70;0.70;;;22.90;56.00;;;;;;31618325;28;20131;-38
2021/10/12 20:15:25;;;;;;;26.15;18.38;;;22.90;56.10;;;;;;31596491;28;20089;-51
2021/10/12 20:30:27;;;;;;;30.38;22.95;;;22.40;53.70;;;;;;31614682;28;20131;-38
2021/10/12 20:45:29;;;;;;;22.10;17.33;;;22.60;53.10;;;;;;31731907;28;20049;-47
2021/10/12 21:00:32;;;;;;;14.73;11.68;;;22.60;52.50;;;;;;31635720;28;20044;-42
2021/10/12 21:15:34;;;;;;;10.68;7.00;;;22.60;53.20;;;;;;31627994;28;20083;-45
2021/10/12 21:30:40;;;;;;;6.97;4.50;;;22.70;53.80;;;;;;31640124;28;20468;-38
2021/10/12 21:45:42;;;;;;;6.28;3.00;;;22.70;54.20;;;;;;31633241;28;20095;-46
2021/10/12 22:00:44;;;;;;;33.88;24.70;;;22.60;54.00;;;;;;31722822;28;20040;-46
2021/10/12 22:15:46;;;;;;;20.73;16.40;;;22.50;52.80;;;;;;31766047;28;20051;-37
2021/10/12 22:30:48;;;;;;;14.18;10.75;;;22.40;52.60;;;;;;31734091;28;20066;-47
2021/10/12 22:45:51;;;;;;;15.48;7.25;;;22.50;53.40;;;;;;31752299;28;20036;-41
2021/10/12 23:00:53;;;;;;;12.75;4.97;;;22.60;53.90;;;;;;31763047;28;20105;-44
2021/10/12 23:15:56;;;;;;;4.15;2.60;;;22.60;54.40;;;;;;31761191;28;20044;-38
2021/10/12 23:30:58;;;;;;;2.42;2.15;;;22.50;54.60;;;;;;31756531;28;20056;-48
2021/10/12 23:46:01;;;;;;;2.78;1.42;;;22.50;54.50;;;;;;31751575;28;20044;-47
